sensor_id;sensor_type;location;lat;lon;timestamp;temperature;humidity
19044;DHT22;9654;52.302;8.120;2022-08-04T00:00:31;21.40;99.90
19044;DHT22;9654;52.302;8.120;2022-08-04T00:03:12;21.40;99.90
19044;DHT22;9654;52.302;8.120;2022-08-04T00:05:51;21.30;99.90
19044;DHT22;9654;52.302;8.120;2022-08-04T00:08:25;21.30;99.90
19044;DHT22;9654;52.302;8.120;2022-08-04T00:10:58;21.30;99.90
19044;DHT22;9654;52.302;8.120;2022-08-04T00:13:30;21.20;99.90
19044;DHT22;9654;52.302;8.120;2022-08-04T00:15:58;21.20;99.90
19044;DHT22;9654;52.302;8.120;2022-08-04T00:18:34;21.10;99.90
19044;DHT22;9654;52.302;8.120;2022-08-04T00:21:04;21.10;99.90
19044;DHT22;9654;52.302;8.120;2022-08-04T00:23:33;21.10;99.90
19044;DHT22;9654;52.302;8.120;2022-08-04T00:26:01;21.10;99.90
19044;DHT22;9654;52.302;8.120;2022-08-04T00:28:28;21.00;99.90
19044;DHT22;9654;52.302;8.120;2022-08-04T00:30:55;21.10;99.90
19044;DHT22;9654;52.302;8.120;2022-08-04T00:33:22;21.00;99.90
19044;DHT22;9654;52.302;8.120;2022-08-04T00:35:51;21.00;99.90
19044;DHT22;9654;52.302;8.120;2022-08-04T00:38:18;21.00;99.90
19044;DHT22;9654;52.302;8.120;2022-08-04T00:40:51;21.00;99.90
19044;DHT22;9654;52.302;8.120;2022-08-04T00:43:23;21.10;99.90
19044;DHT22;9654;52.302;8.120;2022-08-04T00:46:26;21.00;99.90
19044;DHT22;9654;52.302;8.120;2022-08-04T00:49:22;21.10;99.90
19044;DHT22;9654;52.302;8.120;2022-08-04T00:52:01;21.00;99.90
19044;DHT22;9654;52.302;8.120;2022-08-04T00:54:44;21.10;99.90
19044;DHT22;9654;52.302;8.120;2022-08-04T00:57:30;21.10;99.90
19044;DHT22;9654;52.302;8.120;2022-08-04T01:00:06;21.10;99.90
19044;DHT22;9654;52.302;8.120;2022-08-04T01:02:36;21.10;99.90
19044;DHT22;9654;52.302;8.120;2022-08-04T01:05:06;21.10;99.90
19044;DHT22;9654;52.302;8.120;2022-08-04T01:08:05;21.10;99.90
19044;DHT22;9654;52.302;8.120;2022-08-04T01:10:40;21.10;99.90
19044;DHT22;9654;52.302;8.120;2022-08-04T01:13:30;21.10;99.90
19044;DHT22;9654;52.302;8.120;2022-08-04T01:16:03;21.10;99.90
19044;DHT22;9654;52.302;8.120;2022-08-04T01:18:37;21.10;99.90
19044;DHT22;9654;52.302;8.120;2022-08-04T01:24:28;21.10;99.90
19044;DHT22;9654;52.302;8.120;2022-08-04T01:27:01;21.10;99.90
19044;DHT22;9654;52.302;8.120;2022-08-04T01:29:34;21.00;99.90
19044;DHT22;9654;52.302;8.120;2022-08-04T01:32:04;21.00;99.90
19044;DHT22;9654;52.302;8.120;2022-08-04T01:34:35;21.00;99.90
19044;DHT22;9654;52.302;8.120;2022-08-04T01:37:10;21.00;99.90
19044;DHT22;9654;52.302;8.120;2022-08-04T01:42:25;20.90;99.90
19044;DHT22;9654;52.302;8.120;2022-08-04T01:44:58;20.90;99.90
19044;DHT22;9654;52.302;8.120;2022-08-04T01:47:28;21.00;99.90
19044;DHT22;9654;52.302;8.120;2022-08-04T01:50:03;20.90;99.90
19044;DHT22;9654;52.302;8.120;2022-08-04T01:52:31;20.90;99.90
19044;DHT22;9654;52.302;8.120;2022-08-04T01:55:00;20.90;99.90
19044;DHT22;9654;52.302;8.120;2022-08-04T01:57:28;20.90;99.90
19044;DHT22;9654;52.302;8.120;2022-08-04T01:59:59;20.90;99.90
19044;DHT22;9654;52.302;8.120;2022-08-04T02:02:26;20.80;99.90
19044;DHT22;9654;52.302;8.120;2022-08-04T02:04:54;20.90;99.90
19044;DHT22;9654;52.302;8.120;2022-08-04T02:07:31;20.90;99.90
19044;DHT22;9654;52.302;8.120;2022-08-04T02:10:06;20.80;99.90
19044;DHT22;9654;52.302;8.120;2022-08-04T02:12:43;20.80;99.90
19044;DHT22;9654;52.302;8.120;2022-08-04T02:15:24;20.90;99.90
19044;DHT22;9654;52.302;8.120;2022-08-04T02:17:59;20.90;99.90
19044;DHT22;9654;52.302;8.120;2022-08-04T02:20:29;20.90;99.90
19044;DHT22;9654;52.302;8.120;2022-08-04T02:22:59;20.90;99.90
19044;DHT22;9654;52.302;8.120;2022-08-04T02:25:31;20.80;99.90
19044;DHT22;9654;52.302;8.120;2022-08-04T02:28:11;20.80;99.90
19044;DHT22;9654;52.302;8.120;2022-08-04T02:30:52;20.80;99.90
19044;DHT22;9654;52.302;8.120;2022-08-04T02:33:25;20.80;99.90
19044;DHT22;9654;52.302;8.120;2022-08-04T02:35:58;20.80;99.90
19044;DHT22;9654;52.302;8.120;2022-08-04T02:38:38;20.80;99.90
19044;DHT22;9654;52.302;8.120;2022-08-04T02:41:08;20.80;99.90
19044;DHT22;9654;52.302;8.120;2022-08-04T02:43:35;20.80;99.90
19044;DHT22;9654;52.302;8.120;2022-08-04T02:46:05;20.80;99.90
19044;DHT22;9654;52.302;8.120;2022-08-04T02:48:34;20.80;99.90
19044;DHT22;9654;52.302;8.120;2022-08-04T02:51:02;20.80;99.90
19044;DHT22;9654;52.302;8.120;2022-08-04T02:53:32;20.80;99.90
19044;DHT22;9654;52.302;8.120;2022-08-04T02:56:03;20.80;99.90
19044;DHT22;9654;52.302;8.120;2022-08-04T02:58:34;20.80;99.90
19044;DHT22;9654;52.302;8.120;2022-08-04T03:01:01;20.70;99.90
19044;DHT22;9654;52.302;8.120;2022-08-04T03:03:36;20.70;99.90
19044;DHT22;9654;52.302;8.120;2022-08-04T03:06:26;20.70;99.90
19044;DHT22;9654;52.302;8.120;2022-08-04T03:12:10;20.60;99.90
19044;DHT22;9654;52.302;8.120;2022-08-04T03:14:58;20.50;99.90
19044;DHT22;9654;52.302;8.120;2022-08-04T03:18:05;20.50;99.90
19044;DHT22;9654;52.302;8.120;2022-08-04T03:21:00;20.40;99.90
19044;DHT22;9654;52.302;8.120;2022-08-04T03:23:59;20.40;99.90
19044;DHT22;9654;52.302;8.120;2022-08-04T03:26:51;20.40;99.90
19044;DHT22;9654;52.302;8.120;2022-08-04T03:29:40;20.30;99.90
19044;DHT22;9654;52.302;8.120;2022-08-04T03:35:42;20.20;99.90
19044;DHT22;9654;52.302;8.120;2022-08-04T03:38:30;20.20;99.90
19044;DHT22;9654;52.302;8.120;2022-08-04T03:41:26;20.20;99.90
19044;DHT22;9654;52.302;8.120;2022-08-04T03:47:13;20.10;99.90
19044;DHT22;9654;52.302;8.120;2022-08-04T03:50:10;20.10;99.90
19044;DHT22;9654;52.302;8.120;2022-08-04T03:53:02;20.10;99.90
19044;DHT22;9654;52.302;8.120;2022-08-04T04:01:58;20.00;99.90
19044;DHT22;9654;52.302;8.120;2022-08-04T04:04:39;20.00;99.90
19044;DHT22;9654;52.302;8.120;2022-08-04T04:07:37;20.00;99.90
19044;DHT22;9654;52.302;8.120;2022-08-04T04:13:25;20.00;99.90
19044;DHT22;9654;52.302;8.120;2022-08-04T04:16:18;20.00;99.90
19044;DHT22;9654;52.302;8.120;2022-08-04T04:19:28;20.00;99.90
19044;DHT22;9654;52.302;8.120;2022-08-04T04:22:24;20.00;99.90
19044;DHT22;9654;52.302;8.120;2022-08-04T04:25:04;20.00;99.90
19044;DHT22;9654;52.302;8.120;2022-08-04T04:27:51;20.00;99.90
19044;DHT22;9654;52.302;8.120;2022-08-04T04:30:32;20.00;99.90
19044;DHT22;9654;52.302;8.120;2022-08-04T04:33:11;20.00;99.90
19044;DHT22;9654;52.302;8.120;2022-08-04T04:35:52;20.00;99.90
19044;DHT22;9654;52.302;8.120;2022-08-04T04:38:35;20.00;99.90
19044;DHT22;9654;52.302;8.120;2022-08-04T04:41:20;20.00;99.90
19044;DHT22;9654;52.302;8.120;2022-08-04T04:44:14;20.00;99.90
19044;DHT22;9654;52.302;8.120;2022-08-04T04:46:57;20.10;99.90
19044;DHT22;9654;52.302;8.120;2022-08-04T04:49:32;20.20;99.90
19044;DHT22;9654;52.302;8.120;2022-08-04T04:52:05;20.20;99.90
19044;DHT22;9654;52.302;8.120;2022-08-04T04:54:38;20.30;99.90
19044;DHT22;9654;52.302;8.120;2022-08-04T04:57:10;20.30;99.90
19044;DHT22;9654;52.302;8.120;2022-08-04T04:59:45;20.40;99.90
19044;DHT22;9654;52.302;8.120;2022-08-04T05:02:29;20.40;99.90
19044;DHT22;9654;52.302;8.120;2022-08-04T05:05:23;20.50;99.90
19044;DHT22;9654;52.302;8.120;2022-08-04T05:08:25;20.60;99.90
19044;DHT22;9654;52.302;8.120;2022-08-04T05:11:18;20.70;99.90
19044;DHT22;9654;52.302;8.120;2022-08-04T05:13:52;20.80;99.90
19044;DHT22;9654;52.302;8.120;2022-08-04T05:16:24;20.80;99.90
19044;DHT22;9654;52.302;8.120;2022-08-04T05:19:01;20.90;99.90
19044;DHT22;9654;52.302;8.120;2022-08-04T05:21:36;21.00;99.90
19044;DHT22;9654;52.302;8.120;2022-08-04T05:24:06;21.00;99.90
19044;DHT22;9654;52.302;8.120;2022-08-04T05:26:43;21.10;99.90
19044;DHT22;9654;52.302;8.120;2022-08-04T05:29:17;21.20;99.90
19044;DHT22;9654;52.302;8.120;2022-08-04T05:31:51;21.20;99.90
19044;DHT22;9654;52.302;8.120;2022-08-04T05:34:23;21.30;99.90
19044;DHT22;9654;52.302;8.120;2022-08-04T05:36:57;21.40;99.90
19044;DHT22;9654;52.302;8.120;2022-08-04T05:39:27;21.50;99.90
19044;DHT22;9654;52.302;8.120;2022-08-04T05:41:56;21.60;99.90
19044;DHT22;9654;52.302;8.120;2022-08-04T05:44:25;21.60;99.90
19044;DHT22;9654;52.302;8.120;2022-08-04T05:46:55;21.70;99.90
19044;DHT22;9654;52.302;8.120;2022-08-04T05:49:26;21.70;99.90
19044;DHT22;9654;52.302;8.120;2022-08-04T05:51:56;21.80;99.90
19044;DHT22;9654;52.302;8.120;2022-08-04T05:54:24;21.90;99.90
19044;DHT22;9654;52.302;8.120;2022-08-04T05:56:53;21.90;99.90
19044;DHT22;9654;52.302;8.120;2022-08-04T05:59:21;22.00;99.90
19044;DHT22;9654;52.302;8.120;2022-08-04T06:01:50;22.10;99.90
19044;DHT22;9654;52.302;8.120;2022-08-04T06:04:18;22.20;99.90
19044;DHT22;9654;52.302;8.120;2022-08-04T06:06:47;22.30;99.90
19044;DHT22;9654;52.302;8.120;2022-08-04T06:09:14;22.40;99.90
19044;DHT22;9654;52.302;8.120;2022-08-04T06:11:42;22.50;99.90
19044;DHT22;9654;52.302;8.120;2022-08-04T06:14:12;22.70;99.90
19044;DHT22;9654;52.302;8.120;2022-08-04T06:16:43;22.80;99.90
19044;DHT22;9654;52.302;8.120;2022-08-04T06:19:11;22.80;99.90
19044;DHT22;9654;52.302;8.120;2022-08-04T06:21:40;23.00;99.90
19044;DHT22;9654;52.302;8.120;2022-08-04T06:24:11;23.10;99.90
19044;DHT22;9654;52.302;8.120;2022-08-04T06:26:42;23.20;99.90
19044;DHT22;9654;52.302;8.120;2022-08-04T06:29:09;23.30;99.90
19044;DHT22;9654;52.302;8.120;2022-08-04T06:31:43;23.30;99.90
19044;DHT22;9654;52.302;8.120;2022-08-04T06:34:13;23.40;99.90
19044;DHT22;9654;52.302;8.120;2022-08-04T06:36:41;23.40;99.90
19044;DHT22;9654;52.302;8.120;2022-08-04T06:39:10;23.50;99.90
19044;DHT22;9654;52.302;8.120;2022-08-04T06:41:37;23.50;99.90
19044;DHT22;9654;52.302;8.120;2022-08-04T06:44:07;23.60;99.90
19044;DHT22;9654;52.302;8.120;2022-08-04T06:46:36;23.60;99.90
19044;DHT22;9654;52.302;8.120;2022-08-04T06:49:04;23.70;99.90
19044;DHT22;9654;52.302;8.120;2022-08-04T06:51:33;23.70;99.90
19044;DHT22;9654;52.302;8.120;2022-08-04T06:54:01;23.80;99.90
19044;DHT22;9654;52.302;8.120;2022-08-04T06:56:30;23.80;99.90
19044;DHT22;9654;52.302;8.120;2022-08-04T06:59:00;23.90;99.90
19044;DHT22;9654;52.302;8.120;2022-08-04T07:01:28;24.00;99.90
19044;DHT22;9654;52.302;8.120;2022-08-04T07:03:56;24.10;99.90
19044;DHT22;9654;52.302;8.120;2022-08-04T07:06:23;24.20;99.90
19044;DHT22;9654;52.302;8.120;2022-08-04T07:08:51;24.40;99.90
19044;DHT22;9654;52.302;8.120;2022-08-04T07:11:19;24.50;99.90
19044;DHT22;9654;52.302;8.120;2022-08-04T07:13:48;24.60;99.90
19044;DHT22;9654;52.302;8.120;2022-08-04T07:16:17;24.70;99.90
19044;DHT22;9654;52.302;8.120;2022-08-04T07:18:44;24.80;99.90
19044;DHT22;9654;52.302;8.120;2022-08-04T07:21:18;24.70;99.90
19044;DHT22;9654;52.302;8.120;2022-08-04T07:23:46;24.80;99.90
19044;DHT22;9654;52.302;8.120;2022-08-04T07:26:13;25.00;99.90
19044;DHT22;9654;52.302;8.120;2022-08-04T07:28:41;25.10;99.90
19044;DHT22;9654;52.302;8.120;2022-08-04T07:31:12;25.20;99.90
19044;DHT22;9654;52.302;8.120;2022-08-04T07:33:41;25.30;99.90
19044;DHT22;9654;52.302;8.120;2022-08-04T07:36:08;25.30;99.90
19044;DHT22;9654;52.302;8.120;2022-08-04T07:38:35;25.40;99.90
19044;DHT22;9654;52.302;8.120;2022-08-04T07:41:02;25.60;99.90
19044;DHT22;9654;52.302;8.120;2022-08-04T07:43:30;25.80;99.90
19044;DHT22;9654;52.302;8.120;2022-08-04T07:45:57;25.90;99.90
19044;DHT22;9654;52.302;8.120;2022-08-04T07:48:25;26.00;99.90
19044;DHT22;9654;52.302;8.120;2022-08-04T07:50:52;26.00;99.90
19044;DHT22;9654;52.302;8.120;2022-08-04T07:53:20;26.00;99.90
19044;DHT22;9654;52.302;8.120;2022-08-04T07:55:48;26.00;99.90
19044;DHT22;9654;52.302;8.120;2022-08-04T07:58:15;26.10;99.90
19044;DHT22;9654;52.302;8.120;2022-08-04T08:00:43;26.30;99.90
19044;DHT22;9654;52.302;8.120;2022-08-04T08:03:11;26.50;99.90
19044;DHT22;9654;52.302;8.120;2022-08-04T08:05:40;26.70;99.90
19044;DHT22;9654;52.302;8.120;2022-08-04T08:08:07;26.90;99.90
19044;DHT22;9654;52.302;8.120;2022-08-04T08:10:36;27.10;99.90
19044;DHT22;9654;52.302;8.120;2022-08-04T08:13:06;27.40;99.90
19044;DHT22;9654;52.302;8.120;2022-08-04T08:15:34;27.50;99.90
19044;DHT22;9654;52.302;8.120;2022-08-04T08:18:01;27.70;99.90
19044;DHT22;9654;52.302;8.120;2022-08-04T08:20:29;27.80;99.90
19044;DHT22;9654;52.302;8.120;2022-08-04T08:23:00;28.00;99.90
19044;DHT22;9654;52.302;8.120;2022-08-04T08:25:27;28.30;99.90
19044;DHT22;9654;52.302;8.120;2022-08-04T08:27:55;28.50;99.90
19044;DHT22;9654;52.302;8.120;2022-08-04T08:30:21;28.80;99.90
19044;DHT22;9654;52.302;8.120;2022-08-04T08:32:49;28.90;99.90
19044;DHT22;9654;52.302;8.120;2022-08-04T08:35:16;29.10;99.90
19044;DHT22;9654;52.302;8.120;2022-08-04T08:37:46;29.30;99.90
19044;DHT22;9654;52.302;8.120;2022-08-04T08:40:27;29.60;99.90
19044;DHT22;9654;52.302;8.120;2022-08-04T08:43:14;29.80;99.90
19044;DHT22;9654;52.302;8.120;2022-08-04T08:46:02;29.90;99.90
19044;DHT22;9654;52.302;8.120;2022-08-04T08:48:43;30.00;99.90
19044;DHT22;9654;52.302;8.120;2022-08-04T08:51:22;30.10;99.90
19044;DHT22;9654;52.302;8.120;2022-08-04T08:54:12;30.30;99.90
19044;DHT22;9654;52.302;8.120;2022-08-04T08:56:53;30.30;99.90
19044;DHT22;9654;52.302;8.120;2022-08-04T08:59:36;30.20;99.90
19044;DHT22;9654;52.302;8.120;2022-08-04T09:05:23;30.40;99.90
19044;DHT22;9654;52.302;8.120;2022-08-04T09:08:07;30.60;99.90
19044;DHT22;9654;52.302;8.120;2022-08-04T09:10:42;31.00;99.90
19044;DHT22;9654;52.302;8.120;2022-08-04T09:13:18;31.20;99.90
19044;DHT22;9654;52.302;8.120;2022-08-04T09:15:51;31.30;99.90
19044;DHT22;9654;52.302;8.120;2022-08-04T09:18:24;31.40;99.90
19044;DHT22;9654;52.302;8.120;2022-08-04T09:20:58;31.50;99.90
19044;DHT22;9654;52.302;8.120;2022-08-04T09:23:33;31.50;99.90
19044;DHT22;9654;52.302;8.120;2022-08-04T09:26:04;31.80;99.90
19044;DHT22;9654;52.302;8.120;2022-08-04T09:28:43;31.90;99.90
19044;DHT22;9654;52.302;8.120;2022-08-04T09:31:13;32.10;99.90
19044;DHT22;9654;52.302;8.120;2022-08-04T09:33:48;32.10;99.90
19044;DHT22;9654;52.302;8.120;2022-08-04T09:36:25;32.30;99.90
19044;DHT22;9654;52.302;8.120;2022-08-04T09:39:03;32.40;99.90
19044;DHT22;9654;52.302;8.120;2022-08-04T09:41:37;32.40;99.90
19044;DHT22;9654;52.302;8.120;2022-08-04T09:44:23;32.20;99.90
19044;DHT22;9654;52.302;8.120;2022-08-04T09:46:56;32.20;99.90
19044;DHT22;9654;52.302;8.120;2022-08-04T09:49:31;32.40;99.90
19044;DHT22;9654;52.302;8.120;2022-08-04T09:52:06;32.60;99.90
19044;DHT22;9654;52.302;8.120;2022-08-04T09:54:44;32.80;99.90
19044;DHT22;9654;52.302;8.120;2022-08-04T09:57:16;32.90;99.90
19044;DHT22;9654;52.302;8.120;2022-08-04T09:59:53;33.00;99.90
19044;DHT22;9654;52.302;8.120;2022-08-04T10:02:23;33.00;99.90
19044;DHT22;9654;52.302;8.120;2022-08-04T10:04:54;33.00;99.90
19044;DHT22;9654;52.302;8.120;2022-08-04T10:07:41;33.10;99.90
19044;DHT22;9654;52.302;8.120;2022-08-04T10:10:20;33.30;99.90
19044;DHT22;9654;52.302;8.120;2022-08-04T10:13:16;33.40;99.90
19044;DHT22;9654;52.302;8.120;2022-08-04T10:15:54;33.40;99.90
19044;DHT22;9654;52.302;8.120;2022-08-04T10:18:37;33.50;99.90
19044;DHT22;9654;52.302;8.120;2022-08-04T10:21:11;33.60;99.90
19044;DHT22;9654;52.302;8.120;2022-08-04T10:23:51;33.70;99.90
19044;DHT22;9654;52.302;8.120;2022-08-04T10:26:32;33.40;99.90
19044;DHT22;9654;52.302;8.120;2022-08-04T10:29:03;33.30;99.90
19044;DHT22;9654;52.302;8.120;2022-08-04T10:31:37;33.30;99.90
19044;DHT22;9654;52.302;8.120;2022-08-04T10:34:09;33.20;99.90
19044;DHT22;9654;52.302;8.120;2022-08-04T10:36:43;33.10;99.90
19044;DHT22;9654;52.302;8.120;2022-08-04T10:39:13;33.10;99.90
19044;DHT22;9654;52.302;8.120;2022-08-04T10:41:49;33.30;99.90
19044;DHT22;9654;52.302;8.120;2022-08-04T10:44:25;33.60;99.90
19044;DHT22;9654;52.302;8.120;2022-08-04T10:46:59;34.00;99.90
19044;DHT22;9654;52.302;8.120;2022-08-04T10:49:33;34.30;99.90
19044;DHT22;9654;52.302;8.120;2022-08-04T10:52:05;34.40;99.90
19044;DHT22;9654;52.302;8.120;2022-08-04T10:54:40;34.30;99.80
19044;DHT22;9654;52.302;8.120;2022-08-04T10:57:14;34.40;99.20
19044;DHT22;9654;52.302;8.120;2022-08-04T10:59:48;34.40;99.60
19044;DHT22;9654;52.302;8.120;2022-08-04T11:02:29;34.40;99.60
19044;DHT22;9654;52.302;8.120;2022-08-04T11:05:04;34.20;99.30
19044;DHT22;9654;52.302;8.120;2022-08-04T11:07:34;34.10;99.50
19044;DHT22;9654;52.302;8.120;2022-08-04T11:10:04;34.20;99.90
19044;DHT22;9654;52.302;8.120;2022-08-04T11:12:32;34.30;98.60
19044;DHT22;9654;52.302;8.120;2022-08-04T11:15:05;34.40;98.80
19044;DHT22;9654;52.302;8.120;2022-08-04T11:17:37;34.30;98.00
19044;DHT22;9654;52.302;8.120;2022-08-04T11:20:11;34.20;98.30
19044;DHT22;9654;52.302;8.120;2022-08-04T11:22:43;34.30;97.70
19044;DHT22;9654;52.302;8.120;2022-08-04T11:25:17;34.30;97.80
19044;DHT22;9654;52.302;8.120;2022-08-04T11:27:50;34.40;97.70
19044;DHT22;9654;52.302;8.120;2022-08-04T11:30:19;34.60;97.50
19044;DHT22;9654;52.302;8.120;2022-08-04T11:32:51;34.60;96.90
19044;DHT22;9654;52.302;8.120;2022-08-04T11:35:28;34.80;97.60
19044;DHT22;9654;52.302;8.120;2022-08-04T11:38:01;34.90;96.80
19044;DHT22;9654;52.302;8.120;2022-08-04T11:40:36;34.80;96.50
19044;DHT22;9654;52.302;8.120;2022-08-04T11:43:07;34.90;95.90
19044;DHT22;9654;52.302;8.120;2022-08-04T11:45:37;35.00;96.10
19044;DHT22;9654;52.302;8.120;2022-08-04T11:48:10;35.20;95.40
19044;DHT22;9654;52.302;8.120;2022-08-04T11:50:41;35.20;95.30
19044;DHT22;9654;52.302;8.120;2022-08-04T11:53:13;35.10;95.30
19044;DHT22;9654;52.302;8.120;2022-08-04T11:55:42;35.30;95.50
19044;DHT22;9654;52.302;8.120;2022-08-04T11:58:10;35.40;94.90
19044;DHT22;9654;52.302;8.120;2022-08-04T12:00:40;35.50;94.00
19044;DHT22;9654;52.302;8.120;2022-08-04T12:03:20;35.60;93.70
19044;DHT22;9654;52.302;8.120;2022-08-04T12:05:57;35.70;93.50
19044;DHT22;9654;52.302;8.120;2022-08-04T12:12:13;35.70;92.00
19044;DHT22;9654;52.302;8.120;2022-08-04T12:14:50;35.90;92.00
19044;DHT22;9654;52.302;8.120;2022-08-04T12:17:26;36.20;92.60
19044;DHT22;9654;52.302;8.120;2022-08-04T12:20:00;36.30;92.80
19044;DHT22;9654;52.302;8.120;2022-08-04T12:22:33;36.40;92.30
19044;DHT22;9654;52.302;8.120;2022-08-04T12:25:03;36.20;90.90
19044;DHT22;9654;52.302;8.120;2022-08-04T12:27:35;36.10;91.30
19044;DHT22;9654;52.302;8.120;2022-08-04T12:30:04;36.10;91.80
19044;DHT22;9654;52.302;8.120;2022-08-04T12:32:37;36.20;91.80
19044;DHT22;9654;52.302;8.120;2022-08-04T12:35:12;36.10;92.10
19044;DHT22;9654;52.302;8.120;2022-08-04T12:37:47;36.00;92.20
19044;DHT22;9654;52.302;8.120;2022-08-04T12:40:19;35.90;92.50
19044;DHT22;9654;52.302;8.120;2022-08-04T12:42:54;35.80;92.80
19044;DHT22;9654;52.302;8.120;2022-08-04T12:45:23;35.40;93.50
19044;DHT22;9654;52.302;8.120;2022-08-04T12:47:52;35.30;93.70
19044;DHT22;9654;52.302;8.120;2022-08-04T12:50:21;34.90;94.50
19044;DHT22;9654;52.302;8.120;2022-08-04T12:52:53;34.80;94.80
19044;DHT22;9654;52.302;8.120;2022-08-04T12:55:24;34.80;95.30
19044;DHT22;9654;52.302;8.120;2022-08-04T12:57:52;35.00;95.20
19044;DHT22;9654;52.302;8.120;2022-08-04T13:00:25;35.00;95.20
19044;DHT22;9654;52.302;8.120;2022-08-04T13:02:52;34.90;94.80
19044;DHT22;9654;52.302;8.120;2022-08-04T13:05:22;34.70;95.20
19044;DHT22;9654;52.302;8.120;2022-08-04T13:07:52;34.50;94.50
19044;DHT22;9654;52.302;8.120;2022-08-04T13:10:21;34.30;95.10
19044;DHT22;9654;52.302;8.120;2022-08-04T13:12:53;34.20;94.30
19044;DHT22;9654;52.302;8.120;2022-08-04T13:15:22;34.10;94.50
19044;DHT22;9654;52.302;8.120;2022-08-04T13:17:54;33.90;94.60
19044;DHT22;9654;52.302;8.120;2022-08-04T13:20:28;33.70;94.70
19044;DHT22;9654;52.302;8.120;2022-08-04T13:23:03;33.50;95.00
19044;DHT22;9654;52.302;8.120;2022-08-04T13:25:31;33.40;94.90
19044;DHT22;9654;52.302;8.120;2022-08-04T13:27:59;33.10;95.00
19044;DHT22;9654;52.302;8.120;2022-08-04T13:30:27;32.90;95.00
19044;DHT22;9654;52.302;8.120;2022-08-04T13:32:58;32.80;95.20
19044;DHT22;9654;52.302;8.120;2022-08-04T13:35:27;32.70;95.20
19044;DHT22;9654;52.302;8.120;2022-08-04T13:37:55;32.60;95.90
19044;DHT22;9654;52.302;8.120;2022-08-04T13:40:24;32.00;98.20
19044;DHT22;9654;52.302;8.120;2022-08-04T13:42:52;31.20;99.80
19044;DHT22;9654;52.302;8.120;2022-08-04T13:45:21;30.80;99.90
19044;DHT22;9654;52.302;8.120;2022-08-04T13:47:50;30.50;99.90
19044;DHT22;9654;52.302;8.120;2022-08-04T13:50:24;30.50;99.90
19044;DHT22;9654;52.302;8.120;2022-08-04T13:52:55;30.50;99.90
19044;DHT22;9654;52.302;8.120;2022-08-04T13:55:25;30.40;99.90
19044;DHT22;9654;52.302;8.120;2022-08-04T13:57:56;30.00;99.90
19044;DHT22;9654;52.302;8.120;2022-08-04T14:00:25;29.70;99.90
19044;DHT22;9654;52.302;8.120;2022-08-04T14:03:05;29.40;99.90
19044;DHT22;9654;52.302;8.120;2022-08-04T14:05:33;29.00;99.90
19044;DHT22;9654;52.302;8.120;2022-08-04T14:08:06;28.70;99.90
19044;DHT22;9654;52.302;8.120;2022-08-04T14:10:34;28.60;99.90
19044;DHT22;9654;52.302;8.120;2022-08-04T14:13:03;28.50;99.90
19044;DHT22;9654;52.302;8.120;2022-08-04T14:15:35;28.60;99.90
19044;DHT22;9654;52.302;8.120;2022-08-04T14:18:20;28.60;99.90
19044;DHT22;9654;52.302;8.120;2022-08-04T14:21:05;28.70;99.90
19044;DHT22;9654;52.302;8.120;2022-08-04T14:23:42;28.70;99.90
19044;DHT22;9654;52.302;8.120;2022-08-04T14:26:18;28.80;99.90
19044;DHT22;9654;52.302;8.120;2022-08-04T14:28:46;29.00;99.90
19044;DHT22;9654;52.302;8.120;2022-08-04T14:31:14;29.30;99.90
19044;DHT22;9654;52.302;8.120;2022-08-04T14:33:44;29.50;99.90
19044;DHT22;9654;52.302;8.120;2022-08-04T14:36:11;29.80;99.90
19044;DHT22;9654;52.302;8.120;2022-08-04T14:38:51;29.70;99.90
19044;DHT22;9654;52.302;8.120;2022-08-04T14:41:21;29.70;99.90
19044;DHT22;9654;52.302;8.120;2022-08-04T14:43:49;29.70;99.90
19044;DHT22;9654;52.302;8.120;2022-08-04T14:46:16;29.80;99.90
19044;DHT22;9654;52.302;8.120;2022-08-04T14:49:04;29.70;99.90
19044;DHT22;9654;52.302;8.120;2022-08-04T14:51:37;29.60;99.90
19044;DHT22;9654;52.302;8.120;2022-08-04T14:54:07;29.40;99.90
19044;DHT22;9654;52.302;8.120;2022-08-04T14:56:34;29.50;99.90
19044;DHT22;9654;52.302;8.120;2022-08-04T14:59:03;29.60;99.90
19044;DHT22;9654;52.302;8.120;2022-08-04T15:01:30;29.50;99.90
19044;DHT22;9654;52.302;8.120;2022-08-04T15:04:00;29.50;99.90
19044;DHT22;9654;52.302;8.120;2022-08-04T15:06:28;29.80;99.90
19044;DHT22;9654;52.302;8.120;2022-08-04T15:08:57;30.10;99.90
19044;DHT22;9654;52.302;8.120;2022-08-04T15:11:27;30.50;99.90
19044;DHT22;9654;52.302;8.120;2022-08-04T15:13:55;30.70;99.90
19044;DHT22;9654;52.302;8.120;2022-08-04T15:16:23;30.90;99.90
19044;DHT22;9654;52.302;8.120;2022-08-04T15:18:51;31.00;99.90
19044;DHT22;9654;52.302;8.120;2022-08-04T15:21:18;31.20;99.90
19044;DHT22;9654;52.302;8.120;2022-08-04T15:23:47;31.30;99.90
19044;DHT22;9654;52.302;8.120;2022-08-04T15:26:17;31.20;99.90
19044;DHT22;9654;52.302;8.120;2022-08-04T15:28:50;31.40;99.90
19044;DHT22;9654;52.302;8.120;2022-08-04T15:31:19;31.60;99.90
19044;DHT22;9654;52.302;8.120;2022-08-04T15:33:47;31.90;99.90
19044;DHT22;9654;52.302;8.120;2022-08-04T15:36:20;32.10;99.90
19044;DHT22;9654;52.302;8.120;2022-08-04T15:38:51;32.20;99.90
19044;DHT22;9654;52.302;8.120;2022-08-04T15:41:28;32.10;99.90
19044;DHT22;9654;52.302;8.120;2022-08-04T15:47:09;31.50;99.90
19044;DHT22;9654;52.302;8.120;2022-08-04T15:49:37;31.00;99.90
19044;DHT22;9654;52.302;8.120;2022-08-04T15:52:06;30.80;99.90
19044;DHT22;9654;52.302;8.120;2022-08-04T15:54:33;30.70;99.90
19044;DHT22;9654;52.302;8.120;2022-08-04T15:57:01;30.60;99.90
19044;DHT22;9654;52.302;8.120;2022-08-04T15:59:57;30.30;99.90
19044;DHT22;9654;52.302;8.120;2022-08-04T16:02:43;29.80;99.90
19044;DHT22;9654;52.302;8.120;2022-08-04T16:05:32;29.60;99.90
19044;DHT22;9654;52.302;8.120;2022-08-04T16:08:08;29.50;99.90
19044;DHT22;9654;52.302;8.120;2022-08-04T16:10:37;29.30;99.90
19044;DHT22;9654;52.302;8.120;2022-08-04T16:13:06;29.10;99.90
19044;DHT22;9654;52.302;8.120;2022-08-04T16:15:37;28.80;99.90
19044;DHT22;9654;52.302;8.120;2022-08-04T16:18:04;28.70;99.90
19044;DHT22;9654;52.302;8.120;2022-08-04T16:20:32;28.70;99.90
19044;DHT22;9654;52.302;8.120;2022-08-04T16:23:21;28.70;99.90
19044;DHT22;9654;52.302;8.120;2022-08-04T16:25:54;28.50;99.90
19044;DHT22;9654;52.302;8.120;2022-08-04T16:28:37;28.50;99.90
19044;DHT22;9654;52.302;8.120;2022-08-04T16:31:08;28.50;99.90
19044;DHT22;9654;52.302;8.120;2022-08-04T16:33:36;28.40;99.90
19044;DHT22;9654;52.302;8.120;2022-08-04T16:36:06;28.20;99.90
19044;DHT22;9654;52.302;8.120;2022-08-04T16:39:00;28.00;99.90
19044;DHT22;9654;52.302;8.120;2022-08-04T16:41:38;27.90;99.90
19044;DHT22;9654;52.302;8.120;2022-08-04T16:44:27;27.80;99.90
19044;DHT22;9654;52.302;8.120;2022-08-04T16:46:57;27.80;99.90
19044;DHT22;9654;52.302;8.120;2022-08-04T16:49:24;27.70;99.90
19044;DHT22;9654;52.302;8.120;2022-08-04T16:51:52;27.70;99.90
19044;DHT22;9654;52.302;8.120;2022-08-04T16:54:20;27.60;99.90
19044;DHT22;9654;52.302;8.120;2022-08-04T16:56:46;27.60;99.90
19044;DHT22;9654;52.302;8.120;2022-08-04T16:59:13;27.50;99.90
19044;DHT22;9654;52.302;8.120;2022-08-04T17:01:45;27.50;99.90